Time;durP1;ratioP1;P1;durP2;ratioP2;P2;SDS_P1;SDS_P2;PMS_P1;PMS_P2;Temp;Humidity;BMP_temperature;BMP_pressure;BME280_temperature;BME280_humidity;BME280_pressure;Samples;Min_cycle;Max_cycle;Signal;HPM_P1;HPM_P2
2021/04/20 06:08:24;;;;;;;39.60;25.27;;;;;;;;;;5080491;27;20393;-66
2021/04/20 06:10:50;;;;;;;35.63;23.73;;;;;;;;;;5068241;28;20023;-68
2021/04/20 06:13:16;;;;;;;34.70;22.88;;;;;;;;;;5075541;28;20463;-70
2021/04/20 06:15:41;;;;;;;34.10;21.05;;;;;;;;;;5077227;28;20024;-70
2021/04/20 06:18:07;;;;;;;31.25;18.33;;;;;;;;;;5070634;28;20027;-69
2021/04/20 06:20:32;;;;;;;38.03;21.52;;;;;;;;;;5071922;28;20055;-70
2021/04/20 06:23:00;;;;;;;34.10;21.23;;;;;;;;;;5074315;28;20055;-67
2021/04/20 06:25:26;;;;;;;26.58;19.25;;;;;;;;;;5073032;28;20428;-70
2021/04/20 06:27:52;;;;;;;28.90;19.42;;;;;;;;;;5083123;28;20024;-68
2021/04/20 06:30:19;;;;;;;28.85;19.02;;;;;;;;;;5073228;28;20381;-68
2021/04/20 06:32:45;;;;;;;23.35;16.75;;;;;;;;;;5070961;28;20029;-68
2021/04/20 06:35:12;;;;;;;29.10;21.27;;;;;;;;;;5075146;28;20023;-67
2021/04/20 06:37:38;;;;;;;28.38;20.23;;;;;;;;;;5070637;28;20040;-67
2021/04/20 06:40:09;;;;;;;30.33;19.38;;;;;;;;;;5075777;28;20044;-68
2021/04/20 06:42:39;;;;;;;28.17;19.17;;;;;;;;;;5079838;28;20053;-67
2021/04/20 06:45:07;;;;;;;26.63;18.70;;;;;;;;;;5083986;28;20471;-67
2021/04/20 06:47:52;;;;;;;31.10;19.30;;;;;;;;;;5071415;28;20127;-67
2021/04/20 06:50:19;;;;;;;23.23;16.92;;;;;;;;;;5073813;28;20029;-67
2021/04/20 06:52:55;;;;;;;34.58;21.65;;;;;;;;;;5080576;28;20020;-66
2021/04/20 06:55:33;;;;;;;28.13;20.52;;;;;;;;;;5068789;28;20175;-67
2021/04/20 06:58:09;;;;;;;25.02;16.10;;;;;;;;;;5072713;28;20196;-66
2021/04/20 07:00:41;;;;;;;20.10;14.73;;;;;;;;;;5072095;28;20036;-66
2021/04/20 07:03:14;;;;;;;20.63;12.60;;;;;;;;;;5057623;28;20100;-67
2021/04/20 07:05:47;;;;;;;23.25;16.15;;;;;;;;;;5060369;28;20023;-67
2021/04/20 07:08:31;;;;;;;21.85;16.02;;;;;;;;;;5075976;28;20050;-66
2021/04/20 07:10:56;;;;;;;22.88;16.65;;;;;;;;;;5071220;28;20032;-66
2021/04/20 07:13:25;;;;;;;19.27;15.32;;;;;;;;;;5083669;28;20469;-65
2021/04/20 07:15:56;;;;;;;19.10;13.00;;;;;;;;;;5069834;28;20123;-65
2021/04/20 07:18:40;;;;;;;25.58;16.65;;;;;;;;;;5061875;28;20070;-71
2021/04/20 07:21:19;;;;;;;20.63;13.52;;;;;;;;;;5058760;28;20103;-66
2021/04/20 07:24:03;;;;;;;21.05;14.82;;;;;;;;;;5053966;28;20028;-69
2021/04/20 07:26:33;;;;;;;19.13;13.98;;;;;;;;;;5059128;28;20428;-78
2021/04/20 07:29:07;;;;;;;17.73;14.68;;;;;;;;;;5062540;28;20025;-72
2021/04/20 07:31:51;;;;;;;19.38;14.52;;;;;;;;;;5046562;28;20535;-71
2021/04/20 07:34:35;;;;;;;21.95;15.90;;;;;;;;;;5060909;28;20392;-71
2021/04/20 07:37:18;;;;;;;20.15;12.80;;;;;;;;;;5068933;28;20502;-68
2021/04/20 07:39:51;;;;;;;15.77;12.73;;;;;;;;;;5055262;28;20027;-66
2021/04/20 07:42:22;;;;;;;14.77;11.02;;;;;;;;;;5065105;28;20025;-67
2021/04/20 07:44:53;;;;;;;14.35;11.63;;;;;;;;;;5065031;28;20028;-66
2021/04/20 07:47:21;;;;;;;14.45;10.77;;;;;;;;;;5057013;28;20097;-69
2021/04/20 07:50:01;;;;;;;16.38;11.02;;;;;;;;;;5069918;28;20023;-68
2021/04/20 07:52:31;;;;;;;18.05;10.45;;;;;;;;;;5055920;28;20010;-67
2021/04/20 07:55:13;;;;;;;15.48;10.50;;;;;;;;;;5056016;28;20021;-67
2021/04/20 07:57:41;;;;;;;13.95;11.52;;;;;;;;;;5056222;28;20024;-67
2021/04/20 08:00:10;;;;;;;21.90;15.00;;;;;;;;;;5045416;28;20013;-66
2021/04/20 08:02:35;;;;;;;;;;;;;;;;;;5049248;28;20017;-67
2021/04/20 08:05:11;;;;;;;19.50;11.67;;;;;;;;;;5052506;28;20043;-70
2021/04/20 08:07:43;;;;;;;18.38;12.43;;;;;;;;;;5045475;28;20512;-65
2021/04/20 08:10:11;;;;;;;18.13;13.10;;;;;;;;;;5049337;28;20031;-68
2021/04/20 08:12:53;;;;;;;16.55;11.70;;;;;;;;;;5061753;28;20028;-66
2021/04/20 08:15:24;;;;;;;17.60;10.95;;;;;;;;;;5056201;28;20029;-68
2021/04/20 08:17:53;;;;;;;16.17;12.27;;;;;;;;;;5053976;28;20016;-64
2021/04/20 08:20:22;;;;;;;13.50;10.75;;;;;;;;;;5064152;28;20029;-65
2021/04/20 08:22:49;;;;;;;13.95;10.60;;;;;;;;;;5064313;28;20471;-60
2021/04/20 08:25:37;;;;;;;17.45;12.02;;;;;;;;;;5056470;28;20112;-62
2021/04/20 08:28:15;;;;;;;17.33;9.07;;;;;;;;;;5057762;28;20032;-66
2021/04/20 08:30:59;;;;;;;15.82;11.63;;;;;;;;;;5059555;28;20025;-64
2021/04/20 08:33:27;;;;;;;20.38;12.77;;;;;;;;;;5052868;28;20048;-65
2021/04/20 08:35:54;;;;;;;15.23;11.77;;;;;;;;;;5069819;28;20074;-67
2021/04/20 08:38:38;;;;;;;13.95;11.35;;;;;;;;;;5054328;28;20017;-63
2021/04/20 08:41:16;;;;;;;14.52;11.88;;;;;;;;;;5059919;28;20029;-61
2021/04/20 08:44:09;;;;;;;15.05;12.18;;;;;;;;;;5063143;28;20066;-66
2021/04/20 08:46:58;;;;;;;18.35;13.18;;;;;;;;;;5036545;28;20762;-63
2021/04/20 08:49:43;;;;;;;16.65;12.65;;;;;;;;;;5052046;28;20070;-66
2021/04/20 08:52:28;;;;;;;13.65;10.68;;;;;;;;;;5070068;28;20020;-60
2021/04/20 08:55:11;;;;;;;13.40;10.82;;;;;;;;;;5060083;28;20057;-60
2021/04/20 08:57:55;;;;;;;13.55;10.70;;;;;;;;;;5057130;28;20648;-62
2021/04/20 09:00:38;;;;;;;14.27;10.02;;;;;;;;;;5061695;28;20024;-71
2021/04/20 09:03:22;;;;;;;18.38;9.63;;;;;;;;;;5060258;28;20053;-72
2021/04/20 09:05:54;;;;;;;15.50;10.55;;;;;;;;;;5059138;28;20017;-65
2021/04/20 09:08:34;;;;;;;16.23;10.70;;;;;;;;;;5061836;28;20055;-60
2021/04/20 09:11:03;;;;;;;15.27;10.52;;;;;;;;;;5060801;28;20016;-61
2021/04/20 09:13:35;;;;;;;18.48;11.35;;;;;;;;;;5059574;28;20107;-61
2021/04/20 09:16:06;;;;;;;14.15;11.30;;;;;;;;;;5062718;28;20031;-62
2021/04/20 09:18:45;;;;;;;14.57;11.40;;;;;;;;;;5049558;28;20393;-56
2021/04/20 09:21:33;;;;;;;14.70;10.93;;;;;;;;;;5064987;28;20108;-62
2021/04/20 09:24:01;;;;;;;17.52;11.63;;;;;;;;;;5049341;28;20074;-58
2021/04/20 09:26:45;;;;;;;16.13;12.23;;;;;;;;;;5041040;28;20038;-53
2021/04/20 09:29:16;;;;;;;18.85;13.02;;;;;;;;;;5047682;28;20404;-60
2021/04/20 09:31:47;;;;;;;23.73;16.20;;;;;;;;;;5050025;28;20027;-57
2021/04/20 09:34:14;;;;;;;21.05;15.43;;;;;;;;;;5049670;28;20069;-60
2021/04/20 09:36:40;;;;;;;18.80;14.23;;;;;;;;;;5048747;28;20039;-61
2021/04/20 09:39:07;;;;;;;22.73;15.63;;;;;;;;;;5046360;28;20490;-60
2021/04/20 09:41:35;;;;;;;20.58;15.68;;;;;;;;;;5044098;28;20021;-61
2021/04/20 14:16:48;;;;;;;18.65;9.98;;;;;;;;;;5094512;27;20370;-64
2021/04/20 14:19:14;;;;;;;14.30;9.75;;;;;;;;;;5088717;28;20028;-64
